Time;durP1;ratioP1;P1;durP2;ratioP2;P2;SDS_P1;SDS_P2;PMS_P1;PMS_P2;Temp;Humidity;BMP_temperature;BMP_pressure;BME280_temperature;BME280_humidity;BME280_pressure;Samples;Min_cycle;Max_cycle;Signal;HPM_P1;HPM_P2
2021/05/20 00:02:25;;;;;;;9.60;9.20;;;12.00;99.90;;;;;;4972553;28;20876;-68
2021/05/20 00:04:52;;;;;;;9.63;9.10;;;12.10;99.90;;;;;;4972696;28;20466;-68
2021/05/20 00:07:18;;;;;;;8.83;8.53;;;12.00;99.90;;;;;;4972734;28;20483;-68
2021/05/20 00:09:44;;;;;;;8.60;8.40;;;12.00;99.90;;;;;;4972749;28;20451;-68
2021/05/20 00:12:12;;;;;;;8.90;8.60;;;12.00;99.90;;;;;;4972629;28;21234;-68
2021/05/20 00:14:39;;;;;;;8.87;8.40;;;11.90;99.90;;;;;;4972840;28;20491;-69
2021/05/20 00:17:05;;;;;;;8.87;8.57;;;12.00;99.90;;;;;;4971725;28;20479;-68
2021/05/20 00:19:31;;;;;;;8.50;8.20;;;11.90;99.90;;;;;;4972439;28;20455;-68
2021/05/20 00:21:58;;;;;;;8.40;8.00;;;11.90;99.90;;;;;;4972524;28;20444;-68
2021/05/20 00:24:24;;;;;;;9.47;9.07;;;11.90;99.90;;;;;;4972265;28;20458;-68
2021/05/20 00:26:50;;;;;;;9.20;8.70;;;11.80;99.90;;;;;;4972527;28;20503;-69
2021/05/20 00:29:16;;;;;;;9.00;8.70;;;11.80;99.90;;;;;;4972646;28;20459;-68
2021/05/20 00:31:44;;;;;;;9.10;8.60;;;11.80;99.90;;;;;;4972390;28;20486;-68
2021/05/20 00:34:10;;;;;;;8.50;8.10;;;11.80;99.90;;;;;;4972271;28;20452;-68
2021/05/20 00:36:36;;;;;;;9.27;8.97;;;11.80;99.90;;;;;;4972282;28;20455;-69
2021/05/20 00:39:04;;;;;;;8.83;8.43;;;11.80;99.90;;;;;;4972374;28;20447;-68
2021/05/20 00:41:30;;;;;;;8.90;8.50;;;11.80;99.90;;;;;;4972423;28;20447;-68
2021/05/20 00:43:56;;;;;;;9.17;8.87;;;11.80;99.90;;;;;;4972261;28;20456;-69
2021/05/20 00:46:22;;;;;;;9.40;8.90;;;11.70;99.90;;;;;;4971965;28;20447;-68
2021/05/20 00:48:49;;;;;;;9.63;9.33;;;11.60;99.90;;;;;;4972229;28;20458;-68
2021/05/20 00:51:16;;;;;;;8.40;8.00;;;11.60;99.90;;;;;;4972284;28;20454;-68
2021/05/20 00:53:42;;;;;;;8.93;8.63;;;11.70;99.90;;;;;;4971865;28;20490;-68
2021/05/20 00:56:10;;;;;;;9.07;8.77;;;11.60;99.90;;;;;;4972049;28;20470;-68
2021/05/20 00:58:37;;;;;;;8.63;8.33;;;11.60;99.90;;;;;;4971988;28;20471;-68
2021/05/20 01:01:03;;;;;;;9.07;8.50;;;11.60;99.90;;;;;;4972095;28;20455;-68
2021/05/20 01:03:30;;;;;;;8.90;8.40;;;11.60;99.90;;;;;;4972082;28;20527;-68
2021/05/20 01:05:57;;;;;;;9.17;8.67;;;11.50;99.90;;;;;;4971622;28;20498;-68
2021/05/20 01:08:25;;;;;;;8.60;8.10;;;11.50;99.90;;;;;;4971937;28;20479;-68
2021/05/20 01:10:52;;;;;;;8.60;8.30;;;11.50;99.90;;;;;;4971910;28;20811;-68
2021/05/20 01:13:18;;;;;;;8.70;8.40;;;11.50;99.90;;;;;;4972040;28;20494;-68
2021/05/20 01:15:44;;;;;;;9.23;8.53;;;11.50;99.90;;;;;;4971636;28;20454;-68
2021/05/20 01:18:11;;;;;;;8.57;8.27;;;11.50;99.90;;;;;;4971709;28;20455;-68
2021/05/20 01:20:40;;;;;;;9.33;9.03;;;11.50;99.90;;;;;;4971871;28;20460;-68
2021/05/20 01:23:08;;;;;;;9.23;8.83;;;11.50;99.90;;;;;;4971716;28;20511;-68
2021/05/20 01:25:36;;;;;;;9.20;8.70;;;11.50;99.90;;;;;;4971757;28;20452;-68
2021/05/20 01:28:04;;;;;;;9.20;8.80;;;11.60;99.90;;;;;;4974120;28;20832;-68
2021/05/20 01:30:31;;;;;;;9.00;8.60;;;11.50;99.90;;;;;;4975739;28;20451;-68
2021/05/20 01:32:57;;;;;;;8.53;8.23;;;11.50;99.90;;;;;;4975468;28;20514;-68
2021/05/20 01:35:23;;;;;;;9.37;9.07;;;11.50;99.90;;;;;;4975744;28;20451;-68
2021/05/20 01:37:51;;;;;;;8.90;8.60;;;11.50;99.90;;;;;;4975266;28;20455;-68
2021/05/20 01:40:17;;;;;;;9.47;9.07;;;11.50;99.90;;;;;;4975452;28;20461;-67
2021/05/20 01:42:43;;;;;;;10.03;9.63;;;11.50;99.90;;;;;;4975413;28;20444;-68
2021/05/20 01:45:10;;;;;;;9.80;9.40;;;11.50;99.90;;;;;;4975322;28;20463;-67
2021/05/20 01:47:37;;;;;;;9.50;9.17;;;11.50;99.90;;;;;;4975384;28;20456;-67
2021/05/20 01:50:04;;;;;;;9.83;9.40;;;11.40;99.90;;;;;;4975790;28;20447;-68
2021/05/20 01:52:30;;;;;;;8.70;8.40;;;11.30;99.90;;;;;;4975301;28;20479;-67
2021/05/20 01:54:57;;;;;;;9.67;9.37;;;11.20;99.90;;;;;;4975366;28;20530;-67
2021/05/20 01:57:24;;;;;;;9.43;9.03;;;11.20;99.90;;;;;;4975234;28;20506;-68
2021/05/20 01:59:50;;;;;;;10.27;9.90;;;11.10;99.90;;;;;;4975128;28;20458;-68
2021/05/20 02:02:16;;;;;;;9.80;9.50;;;11.10;99.90;;;;;;4975103;28;20925;-67
2021/05/20 02:04:42;;;;;;;9.40;9.10;;;10.90;99.90;;;;;;4975278;28;20506;-68
2021/05/20 02:07:08;;;;;;;10.00;9.60;;;10.90;99.90;;;;;;4974640;28;20490;-67
2021/05/20 02:09:35;;;;;;;9.60;9.20;;;10.80;99.90;;;;;;4975020;28;20448;-67
2021/05/20 02:12:02;;;;;;;10.20;9.80;;;10.80;99.90;;;;;;4975006;28;20479;-68
2021/05/20 02:14:28;;;;;;;9.83;9.43;;;10.90;99.90;;;;;;4974634;28;20458;-69
2021/05/20 02:16:54;;;;;;;10.00;9.60;;;10.80;99.90;;;;;;4974971;28;20454;-67
2021/05/20 02:19:20;;;;;;;9.57;9.27;;;10.80;99.90;;;;;;4974950;28;20860;-67
2021/05/20 02:21:46;;;;;;;10.17;9.77;;;10.90;99.90;;;;;;4974977;28;20476;-67
2021/05/20 02:24:12;;;;;;;9.80;9.50;;;10.80;99.90;;;;;;4974624;28;20443;-67
2021/05/20 02:26:38;;;;;;;10.77;10.37;;;10.80;99.90;;;;;;4974671;28;20452;-67
2021/05/20 02:29:05;;;;;;;10.33;9.80;;;10.90;99.90;;;;;;4974524;28;20460;-68
2021/05/20 02:31:32;;;;;;;10.47;9.90;;;10.90;99.90;;;;;;4974418;28;20458;-68
2021/05/20 02:33:58;;;;;;;10.33;9.83;;;10.90;99.90;;;;;;4974285;28;20464;-68
2021/05/20 02:36:24;;;;;;;10.10;9.80;;;10.90;99.90;;;;;;4974678;28;20482;-67
2021/05/20 02:38:51;;;;;;;9.57;9.07;;;10.90;99.90;;;;;;4973750;28;20462;-68
2021/05/20 02:41:17;;;;;;;10.23;9.83;;;10.90;99.90;;;;;;4974526;28;20454;-68
2021/05/20 02:43:43;;;;;;;10.00;9.70;;;10.90;99.90;;;;;;4974249;28;20927;-68
2021/05/20 02:46:10;;;;;;;9.80;9.50;;;10.80;99.90;;;;;;4974221;28;20474;-68
2021/05/20 02:48:36;;;;;;;9.93;9.63;;;10.80;99.90;;;;;;4974126;28;20455;-67
2021/05/20 02:51:02;;;;;;;10.10;9.70;;;10.80;99.90;;;;;;4974263;28;20469;-68
2021/05/20 02:53:28;;;;;;;9.77;9.47;;;10.80;99.90;;;;;;4974094;28;20488;-68
2021/05/20 02:55:55;;;;;;;9.90;9.50;;;10.80;99.90;;;;;;4974195;28;20451;-69
2021/05/20 02:58:22;;;;;;;9.37;9.07;;;10.90;99.90;;;;;;4973954;28;20456;-68
2021/05/20 03:00:49;;;;;;;9.87;9.57;;;10.80;99.90;;;;;;4973984;28;20510;-67
2021/05/20 03:03:16;;;;;;;10.50;10.10;;;10.90;99.90;;;;;;4973999;28;20527;-69
2021/05/20 03:05:42;;;;;;;10.43;10.03;;;10.90;99.90;;;;;;4973359;28;20490;-72
2021/05/20 03:08:11;;;;;;;10.53;10.13;;;10.80;99.90;;;;;;4973351;28;20949;-69
2021/05/20 03:10:37;;;;;;;9.90;9.60;;;10.80;99.90;;;;;;4973121;28;20542;-69
2021/05/20 03:13:03;;;;;;;10.30;9.80;;;10.80;99.90;;;;;;4968388;28;20516;-69
2021/05/20 03:15:29;;;;;;;9.77;9.47;;;10.80;99.90;;;;;;4973013;28;20450;-69
2021/05/20 03:17:56;;;;;;;10.13;9.83;;;10.80;99.90;;;;;;4973248;28;20515;-69
2021/05/20 03:20:23;;;;;;;10.70;10.30;;;10.80;99.90;;;;;;4973121;28;20497;-70
2021/05/20 03:22:49;;;;;;;10.50;10.20;;;10.80;99.90;;;;;;4973293;28;20448;-69
2021/05/20 03:25:16;;;;;;;10.37;9.80;;;10.70;99.90;;;;;;4973170;28;20479;-69
2021/05/20 03:27:43;;;;;;;9.93;9.53;;;10.70;99.90;;;;;;4972897;28;20456;-69
2021/05/20 03:30:10;;;;;;;10.80;10.40;;;10.70;99.90;;;;;;4972976;28;20446;-69
2021/05/20 03:32:37;;;;;;;9.80;9.50;;;10.70;99.90;;;;;;4972967;28;20578;-69
2021/05/20 03:35:03;;;;;;;10.30;9.90;;;10.80;99.90;;;;;;4973183;28;20448;-69
2021/05/20 03:37:31;;;;;;;10.50;10.20;;;10.80;99.90;;;;;;4972982;28;20458;-69
2021/05/20 03:39:57;;;;;;;10.40;10.10;;;10.80;99.90;;;;;;4972660;28;20953;-69
2021/05/20 03:42:23;;;;;;;10.60;10.30;;;10.90;99.90;;;;;;4972743;28;20455;-69
2021/05/20 03:44:49;;;;;;;10.60;10.30;;;10.90;99.90;;;;;;4972722;28;20464;-69
2021/05/20 03:47:16;;;;;;;10.27;9.97;;;10.90;99.90;;;;;;4972807;28;20461;-69
2021/05/20 03:49:42;;;;;;;10.60;10.20;;;10.80;99.90;;;;;;4972367;28;20452;-69
2021/05/20 03:52:08;;;;;;;9.70;9.30;;;10.80;99.90;;;;;;4963383;28;21103;-69
2021/05/20 03:54:39;;;;;;;10.73;10.33;;;10.70;99.90;;;;;;4972652;28;20452;-69
2021/05/20 03:57:06;;;;;;;10.23;9.83;;;10.70;99.90;;;;;;4972387;28;20957;-69
2021/05/20 03:59:32;;;;;;;10.00;9.60;;;10.80;99.90;;;;;;4972600;28;20540;-69
2021/05/20 04:01:58;;;;;;;10.30;9.80;;;10.80;99.90;;;;;;4972094;28;20825;-69
2021/05/20 04:04:24;;;;;;;10.87;10.37;;;10.70;99.90;;;;;;4972448;28;20530;-70
2021/05/20 04:06:51;;;;;;;10.97;10.57;;;10.70;99.90;;;;;;4972161;28;20487;-70
2021/05/20 04:09:17;;;;;;;9.50;9.10;;;10.60;99.90;;;;;;4972405;28;20456;-70
2021/05/20 04:11:44;;;;;;;10.80;10.40;;;10.50;99.90;;;;;;4971885;28;20448;-70
2021/05/20 04:14:10;;;;;;;10.80;10.30;;;10.60;99.90;;;;;;4971899;28;20451;-70
2021/05/20 04:16:36;;;;;;;15.73;10.60;;;10.60;99.90;;;;;;4972003;28;20451;-70
2021/05/20 04:19:04;;;;;;;21.77;12.20;;;10.60;99.90;;;;;;4972386;28;20490;-70
2021/05/20 04:21:30;;;;;;;10.90;10.50;;;10.60;99.90;;;;;;4971994;28;20455;-70
2021/05/20 04:23:56;;;;;;;10.50;10.10;;;10.60;99.90;;;;;;4971904;28;20822;-69
2021/05/20 04:26:23;;;;;;;11.10;10.73;;;10.60;99.90;;;;;;4971962;28;20454;-69
2021/05/20 04:28:50;;;;;;;10.00;9.70;;;10.60;99.90;;;;;;4972037;28;20506;-69
2021/05/20 04:31:16;;;;;;;11.20;10.70;;;10.70;99.90;;;;;;4972179;28;20628;-69
2021/05/20 04:33:43;;;;;;;9.80;9.40;;;10.70;99.90;;;;;;4971946;28;20487;-69
2021/05/20 04:36:10;;;;;;;9.70;9.40;;;10.80;99.90;;;;;;4971900;28;20738;-69
2021/05/20 04:38:36;;;;;;;11.17;10.47;;;10.90;99.90;;;;;;4971541;28;20464;-69
2021/05/20 04:41:02;;;;;;;10.17;9.67;;;11.00;99.90;;;;;;4971945;28;21012;-69
2021/05/20 04:43:29;;;;;;;9.43;9.00;;;11.50;99.90;;;;;;4971780;28;20527;-69
2021/05/20 04:45:56;;;;;;;9.73;9.40;;;11.50;99.90;;;;;;4971469;28;20451;-69
2021/05/20 04:48:22;;;;;;;10.40;10.03;;;11.30;99.90;;;;;;4971567;28;20455;-68
2021/05/20 04:50:48;;;;;;;10.17;9.87;;;11.20;99.90;;;;;;4971919;28;20807;-68
2021/05/20 04:53:14;;;;;;;10.03;9.63;;;11.10;99.90;;;;;;4971626;28;20484;-69
2021/05/20 04:55:41;;;;;;;10.60;10.00;;;11.20;99.90;;;;;;4971569;28;20458;-69
2021/05/20 04:58:07;;;;;;;9.67;8.93;;;11.50;99.90;;;;;;4971668;28;20455;-69
2021/05/20 05:00:34;;;;;;;9.83;9.43;;;11.80;99.90;;;;;;4971643;28;20481;-69
2021/05/20 05:03:01;;;;;;;11.80;11.13;;;12.00;99.90;;;;;;4971234;28;20475;-68
2021/05/20 05:05:27;;;;;;;10.50;10.00;;;12.00;99.90;;;;;;4971530;28;20462;-68
2021/05/20 05:07:53;;;;;;;10.50;10.20;;;11.90;99.90;;;;;;4971767;28;20651;-69
2021/05/20 05:10:19;;;;;;;10.27;9.93;;;12.00;99.90;;;;;;4971658;28;20455;-68
2021/05/20 05:12:45;;;;;;;10.20;9.70;;;12.50;99.90;;;;;;4971629;28;20483;-69
2021/05/20 05:15:12;;;;;;;11.83;11.23;;;13.10;99.90;;;;;;4971537;28;20514;-69
2021/05/20 05:17:38;;;;;;;11.30;10.73;;;13.10;99.90;;;;;;4971320;28;20699;-69
2021/05/20 05:20:07;;;;;;;10.87;10.27;;;13.00;99.90;;;;;;4971774;28;20462;-69
2021/05/20 05:22:33;;;;;;;10.13;9.53;;;12.70;99.90;;;;;;4971782;28;20964;-69
2021/05/20 05:24:59;;;;;;;10.80;10.30;;;12.50;99.90;;;;;;4971562;28;20458;-69
2021/05/20 05:27:26;;;;;;;11.60;11.10;;;12.50;99.90;;;;;;4971609;28;20455;-69
2021/05/20 05:29:52;;;;;;;9.57;9.23;;;12.50;99.90;;;;;;4971477;28;20460;-68
2021/05/20 05:32:19;;;;;;;9.97;9.57;;;12.60;99.90;;;;;;4971687;28;20487;-68
2021/05/20 05:34:45;;;;;;;11.60;10.80;;;12.60;99.90;;;;;;4971397;28;20460;-69
2021/05/20 05:37:12;;;;;;;11.97;11.30;;;12.70;99.90;;;;;;4971425;28;20508;-69
2021/05/20 05:39:38;;;;;;;12.57;11.17;;;12.80;99.90;;;;;;4971386;28;20777;-69
2021/05/20 05:42:05;;;;;;;12.00;11.30;;;13.00;99.90;;;;;;4971467;28;20976;-68
2021/05/20 05:44:31;;;;;;;12.67;11.87;;;13.20;99.90;;;;;;4971589;28;20474;-68
2021/05/20 05:46:57;;;;;;;9.67;9.17;;;13.40;99.90;;;;;;4971301;28;20510;-68
2021/05/20 05:49:26;;;;;;;10.70;10.30;;;13.50;99.90;;;;;;4971213;28;20455;-68
2021/05/20 05:51:55;;;;;;;8.80;8.50;;;13.50;99.90;;;;;;4971080;28;20463;-69
2021/05/20 05:54:23;;;;;;;9.20;8.60;;;13.40;99.90;;;;;;4971121;28;20464;-68
2021/05/20 05:56:49;;;;;;;9.97;9.57;;;13.50;99.90;;;;;;4971217;28;20459;-68
2021/05/20 05:59:15;;;;;;;9.60;9.30;;;13.60;99.90;;;;;;4971288;28;20456;-68
2021/05/20 06:01:41;;;;;;;8.87;8.53;;;13.70;99.90;;;;;;4970985;28;20984;-70
2021/05/20 06:04:09;;;;;;;9.80;9.50;;;14.00;99.90;;;;;;4970939;28;20941;-68
2021/05/20 06:06:35;;;;;;;10.10;9.80;;;13.90;99.90;;;;;;4970941;28;20498;-69
2021/05/20 06:09:01;;;;;;;10.10;9.80;;;14.00;99.90;;;;;;4971241;28;20454;-69
2021/05/20 06:11:28;;;;;;;9.70;9.23;;;14.10;99.90;;;;;;4971068;28;20902;-68
2021/05/20 06:13:56;;;;;;;10.30;9.90;;;14.10;99.90;;;;;;4971260;28;20511;-68
2021/05/20 06:16:22;;;;;;;9.70;9.40;;;14.10;99.90;;;;;;4974391;28;20487;-68
2021/05/20 06:18:48;;;;;;;11.43;11.03;;;14.20;99.90;;;;;;4974708;28;20459;-69
2021/05/20 06:21:14;;;;;;;10.17;9.67;;;14.30;99.90;;;;;;4974668;28;20462;-68
2021/05/20 06:23:40;;;;;;;10.50;10.00;;;14.40;99.90;;;;;;4974300;28;20458;-69
2021/05/20 06:26:07;;;;;;;11.00;10.60;;;14.70;99.90;;;;;;4974322;28;20467;-69
2021/05/20 06:28:36;;;;;;;10.80;10.40;;;14.80;99.90;;;;;;4974387;28;20458;-69
2021/05/20 06:31:02;;;;;;;10.20;9.87;;;14.90;99.90;;;;;;4974157;28;21069;-69
2021/05/20 06:33:28;;;;;;;10.17;9.87;;;14.80;99.90;;;;;;4973855;28;21005;-68
2021/05/20 06:35:54;;;;;;;10.10;9.43;;;14.80;99.90;;;;;;4973685;28;20954;-68
2021/05/20 06:38:21;;;;;;;10.47;10.00;;;14.80;99.90;;;;;;4973577;28;20448;-68
2021/05/20 06:40:47;;;;;;;10.60;10.10;;;14.80;99.90;;;;;;4973970;28;20466;-68
2021/05/20 06:43:13;;;;;;;10.63;10.23;;;14.60;99.90;;;;;;4973896;28;20938;-68
2021/05/20 06:45:40;;;;;;;10.23;9.73;;;14.30;99.90;;;;;;4973746;28;20503;-69
2021/05/20 06:48:07;;;;;;;9.40;9.00;;;14.10;99.90;;;;;;4973901;28;20448;-68
2021/05/20 06:50:33;;;;;;;9.70;9.10;;;14.20;99.90;;;;;;4973907;28;20455;-69
2021/05/20 06:52:59;;;;;;;10.97;10.60;;;14.20;99.90;;;;;;4973815;28;20499;-68
2021/05/20 06:55:26;;;;;;;10.43;10.03;;;14.70;99.90;;;;;;4973719;28;20451;-68
2021/05/20 07:00:38;;;;;;;10.20;9.80;;;14.90;99.90;;;;;;4973608;28;20431;-68
2021/05/20 07:03:05;;;;;;;10.33;9.90;;;15.10;99.90;;;;;;4973564;28;20472;-68
2021/05/20 07:05:32;;;;;;;9.77;9.40;;;15.30;99.90;;;;;;4973410;28;20459;-68
2021/05/20 07:07:59;;;;;;;9.63;9.33;;;15.50;99.90;;;;;;4973365;28;20857;-69
2021/05/20 07:10:26;;;;;;;10.53;10.00;;;15.80;99.90;;;;;;4973371;28;20455;-68
2021/05/20 07:12:53;;;;;;;10.83;10.40;;;16.10;99.90;;;;;;4973149;28;20484;-68
2021/05/20 07:15:19;;;;;;;10.40;10.10;;;16.70;99.90;;;;;;4973123;28;20828;-68
2021/05/20 07:17:45;;;;;;;10.13;9.73;;;17.70;98.60;;;;;;4973295;28;20467;-69
2021/05/20 07:20:13;;;;;;;10.50;10.10;;;18.00;96.40;;;;;;4973337;28;20804;-69
2021/05/20 07:22:39;;;;;;;10.50;10.10;;;18.30;96.20;;;;;;4973361;28;20444;-69
2021/05/20 07:25:06;;;;;;;11.43;11.00;;;18.80;95.00;;;;;;4973139;28;20455;-69
2021/05/20 07:27:33;;;;;;;10.87;10.50;;;18.50;95.20;;;;;;4973229;28;20451;-68
2021/05/20 07:30:00;;;;;;;10.03;9.70;;;18.30;94.50;;;;;;4973182;28;20456;-68
2021/05/20 07:32:27;;;;;;;10.20;9.80;;;17.90;95.30;;;;;;4973069;28;20554;-68
2021/05/20 07:34:53;;;;;;;9.73;9.43;;;17.50;95.60;;;;;;4972885;28;20452;-69
2021/05/20 07:37:21;;;;;;;10.07;9.77;;;17.10;96.80;;;;;;4972940;28;20448;-68
2021/05/20 07:39:47;;;;;;;11.07;10.57;;;16.90;97.50;;;;;;4973012;28;20988;-68
2021/05/20 07:42:14;;;;;;;10.20;9.80;;;16.30;98.50;;;;;;4972948;28;20946;-68
2021/05/20 07:44:40;;;;;;;10.37;10.07;;;16.10;98.70;;;;;;4972729;28;20455;-68
2021/05/20 07:47:07;;;;;;;10.57;10.27;;;15.90;99.90;;;;;;4972556;28;20456;-69
2021/05/20 07:49:37;;;;;;;9.67;9.20;;;16.00;99.50;;;;;;4972924;28;20518;-68
2021/05/20 07:52:04;;;;;;;10.57;10.20;;;15.70;99.40;;;;;;4972886;28;20452;-68
2021/05/20 07:54:32;;;;;;;10.70;10.03;;;16.10;99.50;;;;;;4972950;28;20452;-68
2021/05/20 07:56:58;;;;;;;9.53;9.23;;;16.40;98.50;;;;;;4972725;28;20448;-68
2021/05/20 07:59:24;;;;;;;10.20;9.90;;;17.00;97.70;;;;;;4972436;28;20456;-68
2021/05/20 08:01:55;;;;;;;10.00;9.60;;;17.90;95.80;;;;;;4972537;28;20459;-69
2021/05/20 08:04:24;;;;;;;10.00;9.50;;;18.50;95.30;;;;;;4972419;28;20454;-69
2021/05/20 08:06:54;;;;;;;10.73;10.43;;;18.90;93.90;;;;;;4972336;28;20488;-69
2021/05/20 08:09:26;;;;;;;10.37;9.90;;;19.00;93.80;;;;;;4972507;28;20460;-69
2021/05/20 08:11:53;;;;;;;11.03;10.50;;;19.50;92.30;;;;;;4972382;28;20464;-69
2021/05/20 08:14:19;;;;;;;9.90;9.60;;;19.70;92.10;;;;;;4972281;28;21039;-68
2021/05/20 08:16:45;;;;;;;10.63;10.23;;;19.50;92.10;;;;;;4972455;28;20828;-69
2021/05/20 08:19:12;;;;;;;10.27;9.90;;;19.00;92.30;;;;;;4972478;28;20468;-69
2021/05/20 08:21:38;;;;;;;11.00;10.60;;;18.40;92.70;;;;;;4972359;28;20452;-68
2021/05/20 08:24:06;;;;;;;9.93;9.63;;;17.90;93.60;;;;;;4972256;28;20448;-69
2021/05/20 08:26:32;;;;;;;9.90;9.60;;;17.70;94.00;;;;;;4972296;28;20576;-68
2021/05/20 08:28:59;;;;;;;10.60;9.73;;;17.40;94.50;;;;;;4972133;28;20512;-68
2021/05/20 08:31:26;;;;;;;10.30;10.00;;;17.10;95.00;;;;;;4971928;28;20459;-69
2021/05/20 08:33:52;;;;;;;9.70;9.40;;;17.20;95.60;;;;;;4972064;28;20492;-69
2021/05/20 08:36:18;;;;;;;10.07;9.77;;;16.80;95.80;;;;;;4971931;28;20447;-68
2021/05/20 08:38:44;;;;;;;10.33;10.00;;;16.90;96.00;;;;;;4971556;28;20459;-69
2021/05/20 08:41:11;;;;;;;10.53;10.10;;;17.00;96.20;;;;;;4971949;28;20452;-69
2021/05/20 08:43:38;;;;;;;10.10;9.80;;;17.00;96.00;;;;;;4971941;28;20463;-69
2021/05/20 08:46:05;;;;;;;9.87;9.47;;;17.30;96.10;;;;;;4972017;28;20466;-68
2021/05/20 08:48:31;;;;;;;8.70;8.40;;;17.30;95.30;;;;;;4971888;28;20969;-68
2021/05/20 08:50:59;;;;;;;9.53;9.20;;;17.10;95.30;;;;;;4971934;28;20502;-69
2021/05/20 08:53:25;;;;;;;10.00;9.70;;;17.50;95.40;;;;;;4971710;28;20584;-69
2021/05/20 08:55:51;;;;;;;10.03;9.53;;;17.80;94.80;;;;;;4971664;28;20978;-68
2021/05/20 08:58:22;;;;;;;9.27;8.97;;;17.50;94.80;;;;;;4971941;28;20823;-68
2021/05/20 09:00:48;;;;;;;10.00;9.60;;;17.70;95.10;;;;;;4971627;28;20515;-69
2021/05/20 09:03:15;;;;;;;10.40;10.10;;;17.90;94.50;;;;;;4971682;28;20468;-69
2021/05/20 09:05:43;;;;;;;10.40;10.10;;;17.90;94.60;;;;;;4971503;28;20476;-69
2021/05/20 09:08:11;;;;;;;9.30;9.00;;;18.10;93.50;;;;;;4971666;28;20448;-69
2021/05/20 09:10:38;;;;;;;10.07;9.77;;;18.30;93.30;;;;;;4971703;28;20515;-69
2021/05/20 09:13:07;;;;;;;10.40;10.00;;;18.90;92.70;;;;;;4971440;28;20483;-69
2021/05/20 09:15:35;;;;;;;9.93;9.63;;;20.20;90.80;;;;;;4971551;28;20467;-69
2021/05/20 09:18:10;;;;;;;10.17;9.77;;;21.50;88.20;;;;;;4971667;28;20459;-69
2021/05/20 09:20:38;;;;;;;10.50;10.20;;;21.20;85.60;;;;;;4971669;28;20818;-69
2021/05/20 09:23:06;;;;;;;11.00;10.70;;;22.00;84.10;;;;;;4971555;28;20456;-69
2021/05/20 09:25:35;;;;;;;11.23;10.83;;;22.70;79.20;;;;;;4971864;28;20863;-69
2021/05/20 09:28:02;;;;;;;11.10;10.60;;;23.60;79.20;;;;;;4971521;28;21024;-70
2021/05/20 09:30:29;;;;;;;10.10;9.80;;;24.80;72.70;;;;;;4971427;28;20452;-70
2021/05/20 09:32:59;;;;;;;11.47;11.07;;;25.10;69.90;;;;;;4971127;28;20867;-70
2021/05/20 09:35:27;;;;;;;11.73;11.27;;;24.60;69.60;;;;;;4971594;28;20865;-69
2021/05/20 09:37:57;;;;;;;10.80;10.30;;;24.40;69.10;;;;;;4971418;28;20467;-70
2021/05/20 09:40:26;;;;;;;10.80;10.40;;;23.40;67.60;;;;;;4971245;28;20472;-69
2021/05/20 09:42:52;;;;;;;10.33;10.03;;;21.90;67.90;;;;;;4971260;28;20796;-69
2021/05/20 09:45:21;;;;;;;10.50;10.00;;;20.80;73.10;;;;;;4971144;28;20447;-69
2021/05/20 09:47:48;;;;;;;10.30;10.00;;;19.70;77.70;;;;;;4971511;28;20957;-70
2021/05/20 09:50:16;;;;;;;10.30;10.00;;;19.60;81.00;;;;;;4973579;28;20514;-69
2021/05/20 09:52:42;;;;;;;11.77;10.90;;;19.20;81.60;;;;;;4974853;28;20487;-69
2021/05/20 09:55:24;;;;;;;10.70;10.30;;;18.70;84.80;;;;;;4974971;28;20459;-69
2021/05/20 09:57:52;;;;;;;11.00;10.60;;;18.80;86.80;;;;;;4974675;28;20455;-69
2021/05/20 10:00:21;;;;;;;10.50;10.20;;;18.90;84.70;;;;;;4974801;28;20456;-69
2021/05/20 10:02:47;;;;;;;10.43;10.13;;;19.20;84.70;;;;;;4974810;28;20475;-69
2021/05/20 10:05:26;;;;;;;10.10;9.80;;;19.40;85.30;;;;;;4974807;28;20460;-70
2021/05/20 10:07:52;;;;;;;11.00;10.60;;;19.40;86.20;;;;;;4974687;28;20461;-69
2021/05/20 10:10:20;;;;;;;10.40;10.10;;;19.80;84.30;;;;;;4974636;28;20982;-70
2021/05/20 10:12:47;;;;;;;10.03;9.73;;;19.60;85.30;;;;;;4974553;28;20479;-69
2021/05/20 10:15:15;;;;;;;11.43;10.90;;;20.60;83.40;;;;;;4974609;28;20455;-69
2021/05/20 10:17:42;;;;;;;10.70;10.40;;;21.90;80.00;;;;;;4974264;28;20463;-69
2021/05/20 10:20:12;;;;;;;10.07;9.77;;;23.40;75.20;;;;;;4974334;28;20510;-70
2021/05/20 10:22:38;;;;;;;11.30;10.80;;;23.60;71.70;;;;;;4973872;28;20779;-69
2021/05/20 10:25:06;;;;;;;11.23;10.83;;;23.40;69.40;;;;;;4974351;28;20953;-70
2021/05/20 10:27:34;;;;;;;11.37;10.87;;;23.20;71.10;;;;;;4974513;28;20464;-70
2021/05/20 10:30:03;;;;;;;10.93;10.43;;;22.70;72.40;;;;;;4974431;28;20518;-70
2021/05/20 10:32:30;;;;;;;10.30;10.00;;;22.90;72.70;;;;;;4974221;28;20456;-70
2021/05/20 10:35:01;;;;;;;10.93;10.53;;;23.00;73.10;;;;;;4974243;28;20592;-70
2021/05/20 10:37:37;;;;;;;11.00;10.70;;;23.20;71.60;;;;;;4974163;28;21024;-69
2021/05/20 10:40:13;;;;;;;11.13;10.73;;;23.40;70.50;;;;;;4974477;28;20447;-69
2021/05/20 10:42:41;;;;;;;11.60;11.10;;;24.70;67.90;;;;;;4974025;28;20698;-69
2021/05/20 10:45:22;;;;;;;11.70;11.40;;;26.50;62.70;;;;;;4973871;28;20998;-70
2021/05/20 10:48:17;;;;;;;12.23;11.73;;;27.60;57.60;;;;;;4974212;28;20451;-69
2021/05/20 10:51:12;;;;;;;11.47;10.70;;;26.60;58.30;;;;;;4973971;28;20555;-70
2021/05/20 10:53:56;;;;;;;12.53;11.97;;;26.30;58.00;;;;;;4973543;28;20859;-70
2021/05/20 10:56:57;;;;;;;11.60;11.20;;;26.00;56.30;;;;;;4973973;28;20470;-69
2021/05/20 10:59:43;;;;;;;10.20;9.80;;;23.40;58.30;;;;;;4971976;28;20448;-69
2021/05/20 11:02:37;;;;;;;10.00;9.70;;;22.80;61.30;;;;;;4973693;28;20593;-69
2021/05/20 11:05:05;;;;;;;10.63;10.23;;;22.70;60.50;;;;;;4973699;28;20506;-69
2021/05/20 11:07:32;;;;;;;11.23;10.73;;;24.30;57.90;;;;;;4973693;28;20841;-70
2021/05/20 11:10:09;;;;;;;10.70;10.33;;;24.20;58.40;;;;;;4973688;28;20452;-70
2021/05/20 11:12:54;;;;;;;11.07;10.70;;;23.80;58.70;;;;;;4973573;28;20467;-69
2021/05/20 11:15:21;;;;;;;10.50;10.20;;;22.80;59.10;;;;;;4973587;28;20447;-70
2021/05/20 11:17:48;;;;;;;10.50;10.20;;;22.40;61.90;;;;;;4971805;28;20471;-69
2021/05/20 11:20:45;;;;;;;10.87;10.57;;;21.60;63.70;;;;;;4973718;28;20510;-70
2021/05/20 11:23:32;;;;;;;10.57;10.27;;;20.60;67.30;;;;;;4973394;28;20452;-69
2021/05/20 11:26:10;;;;;;;11.10;10.50;;;19.90;69.70;;;;;;4973806;28;20572;-69
2021/05/20 11:28:45;;;;;;;10.70;10.30;;;19.40;71.10;;;;;;4971576;28;20447;-69
2021/05/20 11:31:12;;;;;;;10.20;9.80;;;19.10;73.60;;;;;;4973348;28;20831;-69
2021/05/20 11:33:50;;;;;;;10.60;9.97;;;19.10;72.90;;;;;;4973075;28;20488;-69
2021/05/20 11:36:16;;;;;;;10.00;9.60;;;19.00;73.70;;;;;;4971500;28;20466;-68
2021/05/20 11:39:00;;;;;;;9.50;9.10;;;18.90;74.30;;;;;;4973102;28;20451;-68
2021/05/20 11:41:27;;;;;;;10.43;10.10;;;19.00;74.50;;;;;;4973009;28;20459;-69
2021/05/20 11:44:05;;;;;;;10.47;9.87;;;19.10;74.90;;;;;;4973023;28;20455;-69
2021/05/20 11:46:32;;;;;;;10.40;10.00;;;19.00;74.80;;;;;;4972984;28;20482;-68
2021/05/20 11:49:01;;;;;;;9.67;9.37;;;18.90;74.60;;;;;;4972735;28;20466;-69
2021/05/20 11:51:49;;;;;;;8.90;8.53;;;19.00;75.20;;;;;;4972822;28;20460;-69
2021/05/20 11:54:16;;;;;;;10.20;9.60;;;18.90;74.50;;;;;;4972789;28;20539;-69
2021/05/20 11:56:45;;;;;;;10.13;9.83;;;19.00;75.30;;;;;;4972593;28;20456;-70
2021/05/20 11:59:11;;;;;;;10.00;9.70;;;19.30;78.40;;;;;;4972602;28;20954;-69
2021/05/20 12:01:38;;;;;;;10.30;9.97;;;20.20;76.40;;;;;;4972615;28;20479;-70
2021/05/20 12:04:06;;;;;;;10.00;9.70;;;21.40;69.70;;;;;;4972362;28;20522;-70
2021/05/20 12:06:33;;;;;;;8.67;8.47;;;21.40;67.10;;;;;;4972234;28;20487;-70
2021/05/20 12:09:13;;;;;;;9.77;9.47;;;21.60;67.30;;;;;;4972392;28;20459;-69
2021/05/20 12:11:41;;;;;;;10.07;9.57;;;21.30;67.80;;;;;;4971517;28;20525;-70
2021/05/20 12:14:25;;;;;;;9.90;9.50;;;22.00;67.20;;;;;;4971929;28;20499;-69
2021/05/20 12:17:02;;;;;;;10.23;9.90;;;22.60;64.50;;;;;;4972271;28;20459;-69
2021/05/20 12:19:31;;;;;;;9.60;9.30;;;22.90;63.30;;;;;;4972265;28;20452;-69
2021/05/20 12:22:06;;;;;;;10.20;9.90;;;23.70;60.10;;;;;;4972198;28;20451;-69
2021/05/20 12:24:34;;;;;;;9.60;9.27;;;24.30;58.50;;;;;;4972414;28;20455;-68
2021/05/20 12:27:06;;;;;;;9.80;9.47;;;24.40;58.60;;;;;;4972408;28;20451;-69
2021/05/20 12:29:32;;;;;;;9.70;9.40;;;23.70;59.20;;;;;;4972335;28;20452;-68
2021/05/20 12:31:58;;;;;;;9.70;9.40;;;23.70;58.80;;;;;;4972219;28;20502;-69
2021/05/20 12:34:24;;;;;;;10.30;10.00;;;23.00;59.40;;;;;;4971663;28;20491;-69
2021/05/20 12:37:00;;;;;;;11.17;10.40;;;22.30;61.20;;;;;;4971908;28;20452;-70
2021/05/20 12:39:26;;;;;;;9.70;9.40;;;22.60;60.90;;;;;;4970362;28;20463;-69
2021/05/20 12:41:53;;;;;;;10.10;9.70;;;21.70;62.20;;;;;;4972008;28;20451;-69
2021/05/20 12:44:19;;;;;;;9.80;9.50;;;21.00;62.40;;;;;;4971894;28;20447;-69